createdAt,value
2022-08-22T00:03:00.233Z,15.45
2022-08-22T00:03:00.667Z,15.77
2022-08-22T00:05:25.873Z,10.79
2022-08-22T00:10:35.597Z,10.70
2022-08-22T00:15:44.283Z,10.74
2022-08-22T00:21:08.680Z,10.82
2022-08-22T00:26:27.539Z,10.80
2022-08-22T00:31:37.692Z,10.79
2022-08-22T00:36:51.437Z,10.73
2022-08-22T00:42:29.477Z,10.75
2022-08-22T00:48:18.286Z,10.67
2022-08-22T00:54:16.833Z,10.60
2022-08-22T00:59:31.543Z,10.56
2022-08-22T01:04:36.216Z,10.52
2022-08-22T01:10:08.275Z,10.45
2022-08-22T01:15:15.365Z,10.40
2022-08-22T01:20:54.638Z,10.35
2022-08-22T01:26:33.896Z,10.31
2022-08-22T01:32:03.676Z,10.26
2022-08-22T01:37:20.634Z,10.32
2022-08-22T01:42:34.730Z,10.18
2022-08-22T01:47:56.658Z,10.07
2022-08-22T01:53:29.793Z,9.94
2022-08-22T01:58:36.579Z,9.90
2022-08-22T02:04:01.918Z,9.87
2022-08-22T02:09:19.284Z,9.91
2022-08-22T02:14:55.402Z,9.89
2022-08-22T02:20:17.222Z,9.87
2022-08-22T02:25:28.842Z,9.88
2022-08-22T02:30:48.999Z,9.85
2022-08-22T02:36:02.014Z,9.79
2022-08-22T02:41:25.054Z,9.80
2022-08-22T02:46:46.914Z,9.79
2022-08-22T02:52:03.439Z,9.74
2022-08-22T02:57:14.268Z,9.73
2022-08-22T03:02:27.672Z,9.67
2022-08-22T03:07:53.372Z,9.61
2022-08-22T03:13:16.026Z,9.69
2022-08-22T03:18:39.294Z,9.67
2022-08-22T03:23:48.614Z,9.66
2022-08-22T03:29:01.610Z,9.65
2022-08-22T03:34:27.051Z,9.65
2022-08-22T03:39:47.842Z,9.69
2022-08-22T03:45:10.123Z,9.63
2022-08-22T03:50:17.800Z,9.65
2022-08-22T03:55:34.053Z,9.55
2022-08-22T04:01:14.918Z,9.46
2022-08-22T04:06:38.534Z,9.50
2022-08-22T04:12:10.646Z,9.42
2022-08-22T04:17:32.363Z,9.43
2022-08-22T04:22:49.748Z,9.45
2022-08-22T04:27:59.093Z,9.45
2022-08-22T04:33:24.522Z,9.47
2022-08-22T04:38:44.758Z,9.47
2022-08-22T04:43:54.116Z,9.52
2022-08-22T04:49:05.845Z,9.55
2022-08-22T04:54:26.072Z,9.61
2022-08-22T04:59:30.951Z,9.68
2022-08-22T05:04:44.392Z,9.72
2022-08-22T05:10:09.379Z,9.75
2022-08-22T05:15:23.237Z,9.75
2022-08-22T05:20:28.877Z,9.83
2022-08-22T05:25:36.996Z,9.91
2022-08-22T05:30:40.093Z,10.01
2022-08-22T05:35:50.081Z,10.09
2022-08-22T05:41:20.257Z,10.22
2022-08-22T05:46:56.154Z,10.38
2022-08-22T05:52:07.220Z,10.57
2022-08-22T05:57:32.850Z,10.74
2022-08-22T06:02:59.738Z,10.95
2022-08-22T06:08:08.476Z,11.21
2022-08-22T06:13:26.003Z,11.45
2022-08-22T06:18:32.714Z,11.74
2022-08-22T06:23:45.767Z,12.03
2022-08-22T06:28:54.986Z,12.28
2022-08-22T06:34:30.218Z,12.53
2022-08-22T06:39:35.741Z,12.83
2022-08-22T06:44:44.239Z,13.11
2022-08-22T06:49:46.755Z,13.44
2022-08-22T06:54:51.653Z,13.77
2022-08-22T06:59:55.905Z,14.15
2022-08-22T07:04:57.983Z,14.55
2022-08-22T07:10:00.564Z,14.93
2022-08-22T07:15:20.532Z,15.21
2022-08-22T07:20:32.048Z,15.53
2022-08-22T07:25:58.454Z,15.90
2022-08-22T07:31:26.126Z,16.23
2022-08-22T07:36:50.660Z,16.49
2022-08-22T07:42:07.193Z,16.69
2022-08-22T07:47:17.892Z,16.89
2022-08-22T07:52:21.554Z,17.21
2022-08-22T07:57:37.510Z,17.37
2022-08-22T08:02:53.426Z,17.49
2022-08-22T08:07:57.087Z,17.71
2022-08-22T08:13:07.138Z,17.94
2022-08-22T08:18:19.324Z,18.13
2022-08-22T08:23:23.575Z,18.63
2022-08-22T08:28:35.267Z,19.05
2022-08-22T08:33:41.282Z,19.72
2022-08-22T08:39:01.809Z,20.09
2022-08-22T08:44:22.695Z,20.39
2022-08-22T08:49:27.757Z,20.40
2022-08-22T08:54:43.605Z,20.75
2022-08-22T08:59:51.639Z,20.90
2022-08-22T09:05:24.507Z,21.21
2022-08-22T09:10:41.243Z,21.92
2022-08-22T09:16:17.733Z,22.83
2022-08-22T09:21:33.439Z,21.71
2022-08-22T09:26:48.515Z,21.64
2022-08-22T09:32:14.479Z,21.68
2022-08-22T09:37:50.101Z,22.84
2022-08-22T09:43:11.171Z,23.62
2022-08-22T09:48:27.546Z,21.87
2022-08-22T09:53:53.679Z,22.07
2022-08-22T09:59:16.652Z,23.17
2022-08-22T10:04:36.966Z,22.96
2022-08-22T10:10:12.406Z,22.27
2022-08-22T10:15:23.256Z,21.93
2022-08-22T10:20:32.154Z,22.21
2022-08-22T10:25:44.827Z,22.75
2022-08-22T10:31:10.499Z,22.56
2022-08-22T10:36:47.372Z,22.09
2022-08-22T10:42:19.311Z,23.29
2022-08-22T10:47:35.680Z,22.86
2022-08-22T10:52:48.032Z,22.08
2022-08-22T10:58:14.127Z,22.78
2022-08-22T11:03:24.866Z,22.83
2022-08-22T11:09:09.401Z,22.81
2022-08-22T11:14:29.876Z,23.06
2022-08-22T11:19:48.575Z,23.49
2022-08-22T11:25:11.219Z,23.03
2022-08-22T11:30:19.025Z,22.99
2022-08-22T11:35:31.810Z,24.16
2022-08-22T11:41:05.990Z,24.67
2022-08-22T11:46:21.738Z,25.15
2022-08-22T11:51:27.022Z,25.36
2022-08-22T11:56:42.943Z,25.17
2022-08-22T12:01:56.363Z,23.49
2022-08-22T12:07:13.135Z,23.70
2022-08-22T12:12:23.903Z,23.79
2022-08-22T12:17:55.156Z,22.83
2022-08-22T12:23:38.070Z,22.77
2022-08-22T12:29:19.019Z,22.31
2022-08-22T12:34:39.866Z,22.31
2022-08-22T12:39:55.877Z,22.22
2022-08-22T12:45:37.501Z,21.74
2022-08-22T12:50:45.920Z,21.88
2022-08-22T12:56:12.883Z,21.57
2022-08-22T13:01:15.959Z,21.98
2022-08-22T13:06:37.934Z,21.70
2022-08-22T13:11:42.946Z,21.71
2022-08-22T13:16:51.121Z,21.83
2022-08-22T13:22:02.223Z,22.50
2022-08-22T13:27:10.997Z,22.23
2022-08-22T13:32:38.033Z,22.02
2022-08-22T13:37:44.265Z,21.76
2022-08-22T13:42:50.473Z,21.55
2022-08-22T13:48:03.763Z,21.37
2022-08-22T13:53:19.471Z,21.76
2022-08-22T13:58:31.039Z,21.23
2022-08-22T14:03:54.565Z,21.54
2022-08-22T14:09:02.295Z,21.84
2022-08-22T14:14:10.179Z,21.78
2022-08-22T14:19:34.952Z,21.91
2022-08-22T14:25:22.619Z,22.24
2022-08-22T14:31:07.455Z,21.84
2022-08-22T14:36:35.991Z,21.29
2022-08-22T14:41:56.200Z,20.96
2022-08-22T14:47:32.295Z,21.06
2022-08-22T14:52:29.531Z,21.16
2022-08-22T14:57:35.257Z,21.32
2022-08-22T15:02:37.019Z,21.33
2022-08-22T15:07:39.205Z,21.21
2022-08-22T15:12:49.760Z,20.99
2022-08-22T15:17:51.471Z,20.81
2022-08-22T15:22:56.588Z,20.45
2022-08-22T15:28:14.196Z,20.30
2022-08-22T15:33:26.044Z,20.27
2022-08-22T15:38:36.389Z,20.22
2022-08-22T15:43:47.464Z,20.35
2022-08-22T15:49:07.684Z,20.34
2022-08-22T15:54:34.449Z,20.35
2022-08-22T15:59:54.383Z,20.48
2022-08-22T16:05:39.707Z,20.37
2022-08-22T16:10:48.831Z,20.10
2022-08-22T16:15:58.643Z,19.89
2022-08-22T16:21:08.076Z,19.60
2022-08-22T16:26:15.143Z,19.46
2022-08-22T16:31:23.606Z,19.39
2022-08-22T16:36:37.464Z,19.37
2022-08-22T16:41:43.670Z,19.52
2022-08-22T16:46:47.776Z,19.68
2022-08-22T16:52:21.386Z,19.80
2022-08-22T16:57:25.721Z,19.79
2022-08-22T17:02:42.977Z,19.56
2022-08-22T17:07:55.102Z,19.33
2022-08-22T17:13:15.141Z,19.14
2022-08-22T17:18:22.798Z,19.08
2022-08-22T17:23:46.278Z,18.88
2022-08-22T17:29:08.577Z,18.79
2022-08-22T17:34:32.315Z,18.68
2022-08-22T17:39:46.065Z,18.47
2022-08-22T17:45:12.671Z,18.35
2022-08-22T17:50:21.959Z,18.26
2022-08-22T17:55:32.541Z,18.18
2022-08-22T18:00:47.601Z,18.05
2022-08-22T18:06:07.230Z,17.87
2022-08-22T18:11:31.838Z,17.81
2022-08-22T18:16:42.020Z,17.74
2022-08-22T18:21:51.740Z,17.66
2022-08-22T18:27:38.117Z,17.55
2022-08-22T18:33:02.534Z,17.62
2022-08-22T18:38:30.111Z,17.53
2022-08-22T18:43:31.856Z,17.47
2022-08-22T18:48:59.327Z,17.48
2022-08-22T18:54:04.360Z,17.32
2022-08-22T18:59:09.084Z,17.27
2022-08-22T19:04:11.183Z,17.25
2022-08-22T19:09:45.117Z,17.19
2022-08-22T19:15:15.192Z,17.12
2022-08-22T19:20:46.297Z,17.09
2022-08-22T19:26:23.450Z,17.00
2022-08-22T19:31:41.188Z,16.94
2022-08-22T19:36:43.470Z,16.89
2022-08-22T19:41:56.928Z,16.82
2022-08-22T19:47:26.886Z,16.78
2022-08-22T19:52:50.279Z,16.74
2022-08-22T19:57:52.037Z,16.66
2022-08-22T20:03:08.049Z,16.58
2022-08-22T20:08:28.333Z,16.52
2022-08-22T20:13:32.800Z,16.43
2022-08-22T20:19:08.796Z,16.37
2022-08-22T20:24:19.413Z,16.34
2022-08-22T20:29:26.166Z,16.30
2022-08-22T20:34:32.480Z,16.26
2022-08-22T20:39:41.897Z,16.17
2022-08-22T20:44:53.234Z,16.06
2022-08-22T20:50:08.643Z,15.93
2022-08-22T20:55:27.299Z,15.85
2022-08-22T21:00:40.169Z,15.87
2022-08-22T21:05:45.440Z,15.86
2022-08-22T21:11:22.366Z,15.83
2022-08-22T21:16:31.601Z,15.74
2022-08-22T21:21:34.664Z,15.61
2022-08-22T21:26:45.566Z,15.52
2022-08-22T21:31:52.886Z,15.32
2022-08-22T21:36:59.098Z,15.21
2022-08-22T21:42:00.645Z,15.11
2022-08-22T21:47:30.864Z,15.02
2022-08-22T21:52:36.510Z,14.93
2022-08-22T21:57:38.241Z,14.89
2022-08-22T22:02:41.907Z,15.02
2022-08-22T22:07:46.999Z,14.90
2022-08-22T22:12:52.039Z,14.79
2022-08-22T22:17:53.911Z,14.72
2022-08-22T22:22:55.659Z,14.63
2022-08-22T22:27:59.444Z,14.51
2022-08-22T22:33:01.236Z,14.42
2022-08-22T22:38:02.988Z,14.37
2022-08-22T22:43:04.743Z,14.26
2022-08-22T22:48:07.529Z,14.11
2022-08-22T22:53:10.515Z,14.04
2022-08-22T22:58:13.555Z,13.96
2022-08-22T23:03:16.318Z,13.97
2022-08-22T23:08:18.175Z,13.88
2022-08-22T23:13:20.639Z,13.75
2022-08-22T23:18:30.540Z,13.59
2022-08-22T23:23:33.800Z,13.46
2022-08-22T23:28:35.887Z,13.44
2022-08-22T23:33:37.815Z,13.57
2022-08-22T23:38:39.512Z,13.48
2022-08-22T23:43:43.844Z,13.33
2022-08-22T23:48:45.673Z,13.19
2022-08-22T23:53:47.350Z,13.07
2022-08-22T23:58:50.186Z,12.95
